This is the latest recevied weather packets stored in our database for station/object KD7AWQ. If no packets are shown the sender has not sent any weather packets the latest 10 day(s).
| Time | Temp. | Humidity | Pressure | Rain* | Wind** | Luminosity | Snow |
|---|---|---|---|---|---|---|---|
| 1778057772 | 11.67° C | 46% | 1183.7 hPa | 0 mm | - | 0 W/m² | - |
| 1778057468 | 11.67° C | 47% | 1183.6 hPa | 0 mm | - | 0 W/m² | - |
| 1778057165 | 11.67° C | 46% | 1183.7 hPa | 0 mm | - | 0 W/m² | - |
| 1778056861 | 12.22° C | 46% | 1183.7 hPa | 0 mm | - | 0 W/m² | - |
| 1778056559 | 11.67° C | 46% | 1183.7 hPa | 0 mm | - | 0 W/m² | - |
| 1778056256 | 11.11° C | 48% | 1183.5 hPa | 0 mm | - | 0 W/m² | - |
| 1778055953 | 11.11° C | 51% | 1183.9 hPa | 0 mm | - | 0 W/m² | - |
| 1778055648 | 10.56° C | 52% | 1183.8 hPa | 0 mm | - | 0 W/m² | - |
| 1778055347 | 10.56° C | 53% | 1183.6 hPa | 0 mm | - | 0 W/m² | - |
| 1778055044 | 10.56° C | 53% | 1183.7 hPa | 0 mm | - | 0 W/m² | - |
| 1778054741 | 10° C | 56% | 1183.7 hPa | 0 mm | - | 0 W/m² | - |
| 1778054438 | 10.56° C | 54% | 1183.6 hPa | 0 mm | - | 0 W/m² | - |
| 1778054136 | 11.11° C | 53% | 1183.7 hPa | 0 mm | - | 0 W/m² | - |
| 1778053832 | 11.67° C | 51% | 1183.6 hPa | 0 mm | - | 0 W/m² | - |
| 1778053530 | 11.11° C | 51% | 1183.7 hPa | 0 mm | - | 0 W/m² | - |
| 1778053227 | 10.56° C | 54% | 1183.5 hPa | 0 mm | - | 0 W/m² | - |
| 1778052925 | 11.11° C | 55% | 1183.9 hPa | 0 mm | - | 0 W/m² | - |
| 1778052622 | 11.11° C | 53% | 1183.7 hPa | 0 mm | - | 0 W/m² | - |
| 1778052319 | 10.56° C | 54% | 1183.7 hPa | 0 mm | - | 0 W/m² | - |
| 1778052016 | 11.67° C | 52% | 1183.6 hPa | 0 mm | - | 0 W/m² | - |
| 1778051714 | 11.11° C | 52% | 1183.7 hPa | 0 mm | - | 0 W/m² | - |
| 1778051411 | 11.11° C | 51% | 1183.5 hPa | 0 mm | - | 0 W/m² | - |
| 1778051109 | 11.11° C | 52% | 1183.6 hPa | 0 mm | - | 0 W/m² | - |
| 1778050805 | 11.67° C | 50% | 1183.6 hPa | 0 mm | - | 0 W/m² | - |
| 1778050503 | 11.67° C | 51% | 1183.2 hPa | 0 mm | - | 0 W/m² | - |
* Rain latest hour (hover to see other rain measurements)
** Current wind speed in m/s (hover to see current wind gust speed)